sensor_id;sensor_type;location;lat;lon;timestamp;P1;durP1;ratioP1;P2;durP2;ratioP2
15876;SDS011;8037;51.666;7.834;2023-07-29T00:00:38;1.80;;;1.23;;
15876;SDS011;8037;51.666;7.834;2023-07-29T00:03:04;0.93;;;0.93;;
15876;SDS011;8037;51.666;7.834;2023-07-29T00:05:30;3.43;;;1.53;;
15876;SDS011;8037;51.666;7.834;2023-07-29T00:07:56;1.50;;;1.50;;
15876;SDS011;8037;51.666;7.834;2023-07-29T00:10:22;4.23;;;1.63;;
15876;SDS011;8037;51.666;7.834;2023-07-29T00:12:48;1.13;;;1.10;;
15876;SDS011;8037;51.666;7.834;2023-07-29T00:15:14;1.37;;;1.33;;
15876;SDS011;8037;51.666;7.834;2023-07-29T00:17:40;1.77;;;1.67;;
15876;SDS011;8037;51.666;7.834;2023-07-29T00:20:06;1.73;;;1.63;;
15876;SDS011;8037;51.666;7.834;2023-07-29T00:22:32;2.73;;;1.40;;
15876;SDS011;8037;51.666;7.834;2023-07-29T00:24:58;4.00;;;1.40;;
15876;SDS011;8037;51.666;7.834;2023-07-29T00:27:24;1.17;;;1.07;;
15876;SDS011;8037;51.666;7.834;2023-07-29T00:29:51;1.37;;;1.27;;
15876;SDS011;8037;51.666;7.834;2023-07-29T00:32:19;1.80;;;1.70;;
15876;SDS011;8037;51.666;7.834;2023-07-29T00:34:45;1.50;;;1.40;;
15876;SDS011;8037;51.666;7.834;2023-07-29T00:37:11;5.70;;;1.30;;
15876;SDS011;8037;51.666;7.834;2023-07-29T00:39:37;3.40;;;1.67;;
15876;SDS011;8037;51.666;7.834;2023-07-29T00:42:03;9.40;;;1.60;;
15876;SDS011;8037;51.666;7.834;2023-07-29T00:44:30;4.40;;;1.87;;
15876;SDS011;8037;51.666;7.834;2023-07-29T00:46:56;0.60;;;0.60;;
15876;SDS011;8037;51.666;7.834;2023-07-29T00:49:23;1.37;;;1.03;;
15876;SDS011;8037;51.666;7.834;2023-07-29T00:51:51;1.07;;;1.07;;
15876;SDS011;8037;51.666;7.834;2023-07-29T00:54:17;1.20;;;1.10;;
15876;SDS011;8037;51.666;7.834;2023-07-29T00:56:43;2.60;;;1.17;;
15876;SDS011;8037;51.666;7.834;2023-07-29T00:59:09;1.53;;;1.43;;
15876;SDS011;8037;51.666;7.834;2023-07-29T01:01:35;1.40;;;1.20;;
15876;SDS011;8037;51.666;7.834;2023-07-29T01:04:01;1.27;;;1.17;;
15876;SDS011;8037;51.666;7.834;2023-07-29T01:06:37;2.80;;;1.00;;
15876;SDS011;8037;51.666;7.834;2023-07-29T01:09:09;2.70;;;1.40;;
15876;SDS011;8037;51.666;7.834;2023-07-29T01:11:45;1.37;;;1.17;;
15876;SDS011;8037;51.666;7.834;2023-07-29T01:16:52;3.70;;;1.10;;
15876;SDS011;8037;51.666;7.834;2023-07-29T01:21:54;1.40;;;1.30;;
15876;SDS011;8037;51.666;7.834;2023-07-29T01:24:21;1.17;;;1.17;;
15876;SDS011;8037;51.666;7.834;2023-07-29T01:26:46;3.30;;;1.27;;
15876;SDS011;8037;51.666;7.834;2023-07-29T01:29:12;7.37;;;1.23;;
15876;SDS011;8037;51.666;7.834;2023-07-29T01:31:40;1.20;;;1.20;;
15876;SDS011;8037;51.666;7.834;2023-07-29T01:34:18;3.00;;;1.40;;
15876;SDS011;8037;51.666;7.834;2023-07-29T01:36:48;1.20;;;1.00;;
15876;SDS011;8037;51.666;7.834;2023-07-29T01:39:16;5.83;;;1.17;;
15876;SDS011;8037;51.666;7.834;2023-07-29T01:41:43;1.10;;;1.10;;
15876;SDS011;8037;51.666;7.834;2023-07-29T01:44:09;1.80;;;1.40;;
15876;SDS011;8037;51.666;7.834;2023-07-29T01:46:36;1.47;;;1.37;;
15876;SDS011;8037;51.666;7.834;2023-07-29T01:49:02;1.20;;;1.10;;
15876;SDS011;8037;51.666;7.834;2023-07-29T01:51:28;1.10;;;1.10;;
15876;SDS011;8037;51.666;7.834;2023-07-29T01:53:54;1.33;;;1.23;;
15876;SDS011;8037;51.666;7.834;2023-07-29T01:56:20;3.17;;;1.40;;
15876;SDS011;8037;51.666;7.834;2023-07-29T01:58:46;1.10;;;1.00;;
15876;SDS011;8037;51.666;7.834;2023-07-29T02:01:12;2.60;;;1.80;;
15876;SDS011;8037;51.666;7.834;2023-07-29T02:03:38;1.37;;;1.27;;
15876;SDS011;8037;51.666;7.834;2023-07-29T02:06:04;4.50;;;1.03;;
15876;SDS011;8037;51.666;7.834;2023-07-29T02:08:30;1.30;;;1.13;;
15876;SDS011;8037;51.666;7.834;2023-07-29T02:10:56;1.20;;;1.10;;
15876;SDS011;8037;51.666;7.834;2023-07-29T02:13:21;1.03;;;1.03;;
15876;SDS011;8037;51.666;7.834;2023-07-29T02:15:48;1.20;;;1.20;;
15876;SDS011;8037;51.666;7.834;2023-07-29T02:18:14;1.50;;;1.40;;
15876;SDS011;8037;51.666;7.834;2023-07-29T02:20:39;8.20;;;1.23;;
15876;SDS011;8037;51.666;7.834;2023-07-29T02:23:07;1.17;;;1.00;;
15876;SDS011;8037;51.666;7.834;2023-07-29T02:25:35;1.67;;;1.57;;
15876;SDS011;8037;51.666;7.834;2023-07-29T02:28:01;1.17;;;1.07;;
15876;SDS011;8037;51.666;7.834;2023-07-29T02:30:28;3.90;;;1.47;;
15876;SDS011;8037;51.666;7.834;2023-07-29T02:32:54;1.93;;;1.47;;
15876;SDS011;8037;51.666;7.834;2023-07-29T02:35:20;1.03;;;1.03;;
15876;SDS011;8037;51.666;7.834;2023-07-29T02:37:46;2.80;;;1.50;;
15876;SDS011;8037;51.666;7.834;2023-07-29T02:40:12;1.53;;;1.10;;
15876;SDS011;8037;51.666;7.834;2023-07-29T02:42:38;1.90;;;1.30;;
15876;SDS011;8037;51.666;7.834;2023-07-29T02:45:04;2.53;;;1.23;;
15876;SDS011;8037;51.666;7.834;2023-07-29T02:47:34;1.40;;;1.30;;
15876;SDS011;8037;51.666;7.834;2023-07-29T02:50:00;1.43;;;1.33;;
15876;SDS011;8037;51.666;7.834;2023-07-29T02:52:26;1.60;;;1.50;;
15876;SDS011;8037;51.666;7.834;2023-07-29T02:54:51;1.27;;;1.20;;
15876;SDS011;8037;51.666;7.834;2023-07-29T02:57:17;1.17;;;1.07;;
15876;SDS011;8037;51.666;7.834;2023-07-29T02:59:43;1.60;;;1.33;;
15876;SDS011;8037;51.666;7.834;2023-07-29T03:02:10;1.60;;;1.40;;
15876;SDS011;8037;51.666;7.834;2023-07-29T03:04:36;5.03;;;1.50;;
15876;SDS011;8037;51.666;7.834;2023-07-29T03:07:02;3.80;;;1.17;;
15876;SDS011;8037;51.666;7.834;2023-07-29T03:09:28;1.20;;;1.20;;
15876;SDS011;8037;51.666;7.834;2023-07-29T03:11:55;2.10;;;1.33;;
15876;SDS011;8037;51.666;7.834;2023-07-29T03:14:21;1.77;;;1.10;;
15876;SDS011;8037;51.666;7.834;2023-07-29T03:16:47;1.07;;;1.07;;
15876;SDS011;8037;51.666;7.834;2023-07-29T03:19:14;1.67;;;1.57;;
15876;SDS011;8037;51.666;7.834;2023-07-29T03:21:40;6.13;;;1.33;;
15876;SDS011;8037;51.666;7.834;2023-07-29T03:24:06;1.50;;;1.30;;
15876;SDS011;8037;51.666;7.834;2023-07-29T03:26:32;2.37;;;1.70;;
15876;SDS011;8037;51.666;7.834;2023-07-29T03:28:58;1.23;;;1.23;;
15876;SDS011;8037;51.666;7.834;2023-07-29T03:31:24;2.80;;;1.43;;
15876;SDS011;8037;51.666;7.834;2023-07-29T03:33:50;1.17;;;1.17;;
15876;SDS011;8037;51.666;7.834;2023-07-29T03:36:16;1.60;;;1.50;;
15876;SDS011;8037;51.666;7.834;2023-07-29T03:38:41;1.23;;;1.17;;
15876;SDS011;8037;51.666;7.834;2023-07-29T03:41:09;3.10;;;1.57;;
15876;SDS011;8037;51.666;7.834;2023-07-29T03:43:35;14.30;;;1.53;;
15876;SDS011;8037;51.666;7.834;2023-07-29T03:46:01;3.63;;;1.30;;
15876;SDS011;8037;51.666;7.834;2023-07-29T03:48:27;1.87;;;1.77;;
15876;SDS011;8037;51.666;7.834;2023-07-29T03:50:53;1.47;;;1.37;;
15876;SDS011;8037;51.666;7.834;2023-07-29T03:53:19;1.27;;;1.27;;
15876;SDS011;8037;51.666;7.834;2023-07-29T03:55:45;1.37;;;1.27;;
15876;SDS011;8037;51.666;7.834;2023-07-29T03:58:11;1.30;;;1.23;;
15876;SDS011;8037;51.666;7.834;2023-07-29T04:00:38;1.33;;;1.23;;
15876;SDS011;8037;51.666;7.834;2023-07-29T04:03:03;1.77;;;1.50;;
15876;SDS011;8037;51.666;7.834;2023-07-29T04:05:30;1.40;;;1.30;;
15876;SDS011;8037;51.666;7.834;2023-07-29T04:07:55;1.30;;;1.20;;
15876;SDS011;8037;51.666;7.834;2023-07-29T04:10:21;8.10;;;1.60;;
15876;SDS011;8037;51.666;7.834;2023-07-29T04:12:48;2.53;;;1.70;;
15876;SDS011;8037;51.666;7.834;2023-07-29T04:15:14;1.27;;;1.27;;
15876;SDS011;8037;51.666;7.834;2023-07-29T04:17:40;2.40;;;1.40;;
15876;SDS011;8037;51.666;7.834;2023-07-29T04:20:06;1.60;;;0.97;;
15876;SDS011;8037;51.666;7.834;2023-07-29T04:22:32;1.67;;;1.57;;
15876;SDS011;8037;51.666;7.834;2023-07-29T04:24:58;1.73;;;1.50;;
15876;SDS011;8037;51.666;7.834;2023-07-29T04:27:24;1.60;;;1.50;;
15876;SDS011;8037;51.666;7.834;2023-07-29T04:29:50;2.70;;;2.00;;
15876;SDS011;8037;51.666;7.834;2023-07-29T04:32:16;1.73;;;1.63;;
15876;SDS011;8037;51.666;7.834;2023-07-29T04:34:45;1.50;;;1.40;;
15876;SDS011;8037;51.666;7.834;2023-07-29T04:37:11;1.53;;;1.43;;
15876;SDS011;8037;51.666;7.834;2023-07-29T04:39:39;1.60;;;1.50;;
15876;SDS011;8037;51.666;7.834;2023-07-29T04:42:05;2.50;;;2.20;;
15876;SDS011;8037;51.666;7.834;2023-07-29T04:44:31;2.87;;;1.50;;
15876;SDS011;8037;51.666;7.834;2023-07-29T04:46:57;3.73;;;1.40;;
15876;SDS011;8037;51.666;7.834;2023-07-29T04:49:23;1.03;;;1.03;;
15876;SDS011;8037;51.666;7.834;2023-07-29T04:51:49;4.10;;;1.93;;
15876;SDS011;8037;51.666;7.834;2023-07-29T04:54:15;1.70;;;1.60;;
15876;SDS011;8037;51.666;7.834;2023-07-29T04:56:41;4.63;;;1.50;;
15876;SDS011;8037;51.666;7.834;2023-07-29T04:59:07;1.40;;;1.30;;
15876;SDS011;8037;51.666;7.834;2023-07-29T05:01:33;3.63;;;1.47;;
15876;SDS011;8037;51.666;7.834;2023-07-29T05:03:59;2.07;;;1.97;;
15876;SDS011;8037;51.666;7.834;2023-07-29T05:06:25;2.20;;;1.57;;
15876;SDS011;8037;51.666;7.834;2023-07-29T05:08:51;4.10;;;1.50;;
15876;SDS011;8037;51.666;7.834;2023-07-29T05:11:17;8.13;;;2.30;;
15876;SDS011;8037;51.666;7.834;2023-07-29T05:13:47;2.10;;;1.67;;
15876;SDS011;8037;51.666;7.834;2023-07-29T05:16:13;1.67;;;1.57;;
15876;SDS011;8037;51.666;7.834;2023-07-29T05:18:39;11.93;;;1.67;;
15876;SDS011;8037;51.666;7.834;2023-07-29T05:21:05;3.70;;;2.37;;
15876;SDS011;8037;51.666;7.834;2023-07-29T05:23:31;2.20;;;2.10;;
15876;SDS011;8037;51.666;7.834;2023-07-29T05:25:57;1.80;;;1.63;;
15876;SDS011;8037;51.666;7.834;2023-07-29T05:28:23;3.10;;;2.80;;
15876;SDS011;8037;51.666;7.834;2023-07-29T05:30:48;2.03;;;1.90;;
15876;SDS011;8037;51.666;7.834;2023-07-29T05:33:14;3.27;;;1.73;;
15876;SDS011;8037;51.666;7.834;2023-07-29T05:35:43;2.03;;;1.60;;
15876;SDS011;8037;51.666;7.834;2023-07-29T05:38:11;2.43;;;2.23;;
15876;SDS011;8037;51.666;7.834;2023-07-29T05:40:37;2.20;;;2.00;;
15876;SDS011;8037;51.666;7.834;2023-07-29T05:43:02;2.10;;;1.80;;
15876;SDS011;8037;51.666;7.834;2023-07-29T05:45:28;2.60;;;1.50;;
15876;SDS011;8037;51.666;7.834;2023-07-29T05:47:56;2.60;;;1.60;;
15876;SDS011;8037;51.666;7.834;2023-07-29T05:50:22;3.90;;;2.90;;
15876;SDS011;8037;51.666;7.834;2023-07-29T05:52:48;1.97;;;1.87;;
15876;SDS011;8037;51.666;7.834;2023-07-29T05:55:14;2.13;;;1.93;;
15876;SDS011;8037;51.666;7.834;2023-07-29T05:57:40;2.07;;;1.97;;
15876;SDS011;8037;51.666;7.834;2023-07-29T06:00:06;2.70;;;2.50;;
15876;SDS011;8037;51.666;7.834;2023-07-29T06:02:32;7.33;;;2.87;;
15876;SDS011;8037;51.666;7.834;2023-07-29T06:04:58;2.37;;;2.17;;
15876;SDS011;8037;51.666;7.834;2023-07-29T06:07:24;3.23;;;2.33;;
15876;SDS011;8037;51.666;7.834;2023-07-29T06:09:53;3.30;;;2.80;;
15876;SDS011;8037;51.666;7.834;2023-07-29T06:12:20;3.90;;;2.43;;
15876;SDS011;8037;51.666;7.834;2023-07-29T06:14:46;2.10;;;2.00;;
15876;SDS011;8037;51.666;7.834;2023-07-29T06:17:12;2.50;;;2.30;;
15876;SDS011;8037;51.666;7.834;2023-07-29T06:19:38;3.10;;;2.90;;
15876;SDS011;8037;51.666;7.834;2023-07-29T06:22:04;2.50;;;2.30;;
15876;SDS011;8037;51.666;7.834;2023-07-29T06:24:30;12.13;;;3.10;;
15876;SDS011;8037;51.666;7.834;2023-07-29T06:26:57;2.57;;;2.37;;
15876;SDS011;8037;51.666;7.834;2023-07-29T06:29:23;7.30;;;3.00;;
15876;SDS011;8037;51.666;7.834;2023-07-29T06:31:49;3.00;;;2.80;;
15876;SDS011;8037;51.666;7.834;2023-07-29T06:34:16;2.93;;;2.73;;
15876;SDS011;8037;51.666;7.834;2023-07-29T06:36:42;3.67;;;3.37;;
15876;SDS011;8037;51.666;7.834;2023-07-29T06:39:08;3.37;;;3.10;;
15876;SDS011;8037;51.666;7.834;2023-07-29T06:41:34;4.00;;;3.60;;
15876;SDS011;8037;51.666;7.834;2023-07-29T06:44:00;5.93;;;3.73;;
15876;SDS011;8037;51.666;7.834;2023-07-29T06:46:26;3.60;;;3.30;;
15876;SDS011;8037;51.666;7.834;2023-07-29T06:48:51;3.70;;;3.40;;
15876;SDS011;8037;51.666;7.834;2023-07-29T06:51:18;2.97;;;2.73;;
15876;SDS011;8037;51.666;7.834;2023-07-29T06:53:43;3.90;;;3.60;;
15876;SDS011;8037;51.666;7.834;2023-07-29T06:56:09;9.20;;;2.40;;
15876;SDS011;8037;51.666;7.834;2023-07-29T06:58:35;2.83;;;2.73;;
15876;SDS011;8037;51.666;7.834;2023-07-29T07:01:01;2.53;;;2.40;;
15876;SDS011;8037;51.666;7.834;2023-07-29T07:03:28;4.00;;;3.07;;
15876;SDS011;8037;51.666;7.834;2023-07-29T07:05:54;3.00;;;2.80;;
15876;SDS011;8037;51.666;7.834;2023-07-29T07:08:20;2.83;;;2.63;;
15876;SDS011;8037;51.666;7.834;2023-07-29T07:10:47;3.57;;;3.30;;
15876;SDS011;8037;51.666;7.834;2023-07-29T07:13:13;4.10;;;3.70;;
15876;SDS011;8037;51.666;7.834;2023-07-29T07:15:41;4.43;;;3.10;;
15876;SDS011;8037;51.666;7.834;2023-07-29T07:18:10;3.13;;;2.93;;
15876;SDS011;8037;51.666;7.834;2023-07-29T07:20:36;3.20;;;2.90;;
15876;SDS011;8037;51.666;7.834;2023-07-29T07:23:02;3.00;;;2.80;;
15876;SDS011;8037;51.666;7.834;2023-07-29T07:25:30;4.03;;;2.57;;
15876;SDS011;8037;51.666;7.834;2023-07-29T07:27:56;2.30;;;2.20;;
15876;SDS011;8037;51.666;7.834;2023-07-29T07:30:22;2.27;;;2.17;;
15876;SDS011;8037;51.666;7.834;2023-07-29T07:32:48;1.97;;;1.87;;
15876;SDS011;8037;51.666;7.834;2023-07-29T07:35:15;1.90;;;1.80;;
15876;SDS011;8037;51.666;7.834;2023-07-29T07:37:42;7.07;;;1.97;;
15876;SDS011;8037;51.666;7.834;2023-07-29T07:40:08;11.30;;;1.77;;
15876;SDS011;8037;51.666;7.834;2023-07-29T07:42:34;2.60;;;0.90;;
15876;SDS011;8037;51.666;7.834;2023-07-29T07:45:00;2.13;;;1.90;;
15876;SDS011;8037;51.666;7.834;2023-07-29T07:47:26;3.10;;;1.40;;
15876;SDS011;8037;51.666;7.834;2023-07-29T07:49:52;7.57;;;1.20;;
15876;SDS011;8037;51.666;7.834;2023-07-29T07:52:18;1.00;;;1.00;;
15876;SDS011;8037;51.666;7.834;2023-07-29T07:54:44;1.27;;;1.17;;
15876;SDS011;8037;51.666;7.834;2023-07-29T07:57:10;0.80;;;0.80;;
15876;SDS011;8037;51.666;7.834;2023-07-29T07:59:36;2.97;;;1.20;;
15876;SDS011;8037;51.666;7.834;2023-07-29T08:02:02;0.90;;;0.90;;
15876;SDS011;8037;51.666;7.834;2023-07-29T08:04:28;1.20;;;1.00;;
15876;SDS011;8037;51.666;7.834;2023-07-29T08:06:54;1.40;;;1.13;;
15876;SDS011;8037;51.666;7.834;2023-07-29T08:09:20;1.23;;;1.17;;
15876;SDS011;8037;51.666;7.834;2023-07-29T08:11:46;1.30;;;1.20;;
15876;SDS011;8037;51.666;7.834;2023-07-29T08:14:12;0.80;;;0.77;;
15876;SDS011;8037;51.666;7.834;2023-07-29T08:16:38;4.50;;;1.03;;
15876;SDS011;8037;51.666;7.834;2023-07-29T08:19:04;2.43;;;1.27;;
15876;SDS011;8037;51.666;7.834;2023-07-29T08:21:30;4.73;;;1.43;;
15876;SDS011;8037;51.666;7.834;2023-07-29T08:23:56;2.67;;;1.47;;
15876;SDS011;8037;51.666;7.834;2023-07-29T08:26:22;1.87;;;1.77;;
15876;SDS011;8037;51.666;7.834;2023-07-29T08:28:48;2.50;;;1.60;;
15876;SDS011;8037;51.666;7.834;2023-07-29T08:31:14;3.67;;;2.00;;
15876;SDS011;8037;51.666;7.834;2023-07-29T08:33:40;1.57;;;1.33;;
15876;SDS011;8037;51.666;7.834;2023-07-29T08:36:06;5.60;;;1.23;;
15876;SDS011;8037;51.666;7.834;2023-07-29T08:38:32;1.37;;;1.20;;
15876;SDS011;8037;51.666;7.834;2023-07-29T08:43:30;1.47;;;1.30;;
15876;SDS011;8037;51.666;7.834;2023-07-29T08:45:57;0.80;;;0.77;;
15876;SDS011;8037;51.666;7.834;2023-07-29T08:48:29;1.13;;;1.03;;
15876;SDS011;8037;51.666;7.834;2023-07-29T08:50:55;1.13;;;0.83;;
15876;SDS011;8037;51.666;7.834;2023-07-29T08:53:24;2.23;;;1.10;;
15876;SDS011;8037;51.666;7.834;2023-07-29T08:55:53;1.53;;;1.20;;
15876;SDS011;8037;51.666;7.834;2023-07-29T08:58:20;0.70;;;0.70;;
15876;SDS011;8037;51.666;7.834;2023-07-29T09:00:47;1.03;;;1.03;;
15876;SDS011;8037;51.666;7.834;2023-07-29T09:03:13;2.23;;;0.80;;
15876;SDS011;8037;51.666;7.834;2023-07-29T09:05:42;2.60;;;0.80;;
15876;SDS011;8037;51.666;7.834;2023-07-29T09:08:08;1.20;;;1.03;;
15876;SDS011;8037;51.666;7.834;2023-07-29T09:10:38;1.27;;;0.60;;
15876;SDS011;8037;51.666;7.834;2023-07-29T09:13:04;1.00;;;0.70;;
15876;SDS011;8037;51.666;7.834;2023-07-29T09:15:31;0.80;;;0.80;;
15876;SDS011;8037;51.666;7.834;2023-07-29T09:17:57;3.03;;;0.80;;
15876;SDS011;8037;51.666;7.834;2023-07-29T09:20:27;2.53;;;1.23;;
15876;SDS011;8037;51.666;7.834;2023-07-29T09:22:53;0.60;;;0.60;;
15876;SDS011;8037;51.666;7.834;2023-07-29T09:25:26;1.33;;;0.90;;
15876;SDS011;8037;51.666;7.834;2023-07-29T09:28:00;1.27;;;0.67;;
15876;SDS011;8037;51.666;7.834;2023-07-29T09:30:26;2.30;;;0.80;;
15876;SDS011;8037;51.666;7.834;2023-07-29T09:32:54;1.53;;;1.43;;
15876;SDS011;8037;51.666;7.834;2023-07-29T09:35:21;0.60;;;0.60;;
15876;SDS011;8037;51.666;7.834;2023-07-29T09:37:47;2.50;;;0.70;;
15876;SDS011;8037;51.666;7.834;2023-07-29T09:40:15;1.30;;;0.63;;
15876;SDS011;8037;51.666;7.834;2023-07-29T09:42:47;0.70;;;0.70;;
15876;SDS011;8037;51.666;7.834;2023-07-29T09:45:18;1.63;;;1.00;;
15876;SDS011;8037;51.666;7.834;2023-07-29T09:47:48;2.10;;;0.70;;
15876;SDS011;8037;51.666;7.834;2023-07-29T09:50:15;1.43;;;0.97;;
15876;SDS011;8037;51.666;7.834;2023-07-29T09:52:41;2.50;;;1.00;;
15876;SDS011;8037;51.666;7.834;2023-07-29T09:55:07;0.93;;;0.83;;
15876;SDS011;8037;51.666;7.834;2023-07-29T09:57:42;1.27;;;0.90;;
15876;SDS011;8037;51.666;7.834;2023-07-29T10:00:10;0.80;;;0.80;;
15876;SDS011;8037;51.666;7.834;2023-07-29T10:02:37;6.50;;;1.00;;
15876;SDS011;8037;51.666;7.834;2023-07-29T10:05:04;1.00;;;0.90;;
15876;SDS011;8037;51.666;7.834;2023-07-29T10:07:30;0.70;;;0.70;;
15876;SDS011;8037;51.666;7.834;2023-07-29T10:09:57;0.67;;;0.60;;
15876;SDS011;8037;51.666;7.834;2023-07-29T10:12:23;0.97;;;0.87;;
15876;SDS011;8037;51.666;7.834;2023-07-29T10:14:50;1.63;;;1.30;;
15876;SDS011;8037;51.666;7.834;2023-07-29T10:17:16;0.80;;;0.80;;
15876;SDS011;8037;51.666;7.834;2023-07-29T10:19:43;2.00;;;1.10;;
15876;SDS011;8037;51.666;7.834;2023-07-29T10:22:10;1.30;;;1.20;;
15876;SDS011;8037;51.666;7.834;2023-07-29T10:24:42;4.90;;;1.13;;
15876;SDS011;8037;51.666;7.834;2023-07-29T10:27:08;2.03;;;1.60;;
15876;SDS011;8037;51.666;7.834;2023-07-29T10:29:38;8.03;;;1.30;;
15876;SDS011;8037;51.666;7.834;2023-07-29T10:32:07;1.10;;;1.10;;
15876;SDS011;8037;51.666;7.834;2023-07-29T10:34:34;1.47;;;1.37;;
15876;SDS011;8037;51.666;7.834;2023-07-29T10:37:01;0.70;;;0.70;;
15876;SDS011;8037;51.666;7.834;2023-07-29T10:39:27;1.40;;;1.30;;
15876;SDS011;8037;51.666;7.834;2023-07-29T10:42:05;0.90;;;0.90;;
15876;SDS011;8037;51.666;7.834;2023-07-29T10:47:20;2.23;;;1.47;;
15876;SDS011;8037;51.666;7.834;2023-07-29T10:49:48;3.90;;;1.23;;
15876;SDS011;8037;51.666;7.834;2023-07-29T10:57:49;1.17;;;0.93;;
15876;SDS011;8037;51.666;7.834;2023-07-29T11:00:15;3.53;;;0.93;;
15876;SDS011;8037;51.666;7.834;2023-07-29T11:02:41;1.13;;;1.00;;
15876;SDS011;8037;51.666;7.834;2023-07-29T11:05:08;1.70;;;1.60;;
15876;SDS011;8037;51.666;7.834;2023-07-29T11:07:45;1.13;;;0.97;;
15876;SDS011;8037;51.666;7.834;2023-07-29T11:10:12;1.17;;;1.07;;
15876;SDS011;8037;51.666;7.834;2023-07-29T11:12:39;2.30;;;1.53;;
15876;SDS011;8037;51.666;7.834;2023-07-29T11:17:35;1.67;;;1.57;;
15876;SDS011;8037;51.666;7.834;2023-07-29T11:20:02;7.87;;;0.97;;
15876;SDS011;8037;51.666;7.834;2023-07-29T11:22:29;1.10;;;1.03;;
15876;SDS011;8037;51.666;7.834;2023-07-29T11:24:55;1.40;;;1.30;;
15876;SDS011;8037;51.666;7.834;2023-07-29T11:27:21;1.10;;;1.00;;
15876;SDS011;8037;51.666;7.834;2023-07-29T11:29:49;2.20;;;2.07;;
15876;SDS011;8037;51.666;7.834;2023-07-29T11:32:16;1.77;;;1.57;;
15876;SDS011;8037;51.666;7.834;2023-07-29T11:34:42;5.27;;;2.80;;
15876;SDS011;8037;51.666;7.834;2023-07-29T11:37:11;6.13;;;1.53;;
15876;SDS011;8037;51.666;7.834;2023-07-29T11:39:40;1.53;;;1.43;;
15876;SDS011;8037;51.666;7.834;2023-07-29T11:42:16;1.30;;;1.20;;
15876;SDS011;8037;51.666;7.834;2023-07-29T11:44:42;1.07;;;1.07;;
15876;SDS011;8037;51.666;7.834;2023-07-29T11:47:09;1.03;;;1.03;;
15876;SDS011;8037;51.666;7.834;2023-07-29T11:49:35;0.80;;;0.80;;
15876;SDS011;8037;51.666;7.834;2023-07-29T11:52:05;3.20;;;1.23;;
15876;SDS011;8037;51.666;7.834;2023-07-29T11:54:32;1.53;;;0.97;;
15876;SDS011;8037;51.666;7.834;2023-07-29T11:56:58;3.17;;;0.80;;
15876;SDS011;8037;51.666;7.834;2023-07-29T11:59:24;1.10;;;0.90;;
15876;SDS011;8037;51.666;7.834;2023-07-29T12:01:50;0.77;;;0.77;;
15876;SDS011;8037;51.666;7.834;2023-07-29T12:04:16;0.80;;;0.70;;
15876;SDS011;8037;51.666;7.834;2023-07-29T12:06:42;0.60;;;0.60;;
15876;SDS011;8037;51.666;7.834;2023-07-29T12:09:08;0.70;;;0.70;;
15876;SDS011;8037;51.666;7.834;2023-07-29T12:11:35;1.43;;;1.00;;
15876;SDS011;8037;51.666;7.834;2023-07-29T12:14:01;0.80;;;0.77;;
15876;SDS011;8037;51.666;7.834;2023-07-29T12:16:28;0.83;;;0.83;;
15876;SDS011;8037;51.666;7.834;2023-07-29T12:19:00;1.00;;;0.90;;
15876;SDS011;8037;51.666;7.834;2023-07-29T12:21:26;0.80;;;0.80;;
15876;SDS011;8037;51.666;7.834;2023-07-29T12:23:52;0.80;;;0.80;;
15876;SDS011;8037;51.666;7.834;2023-07-29T12:26:18;0.90;;;0.90;;
15876;SDS011;8037;51.666;7.834;2023-07-29T12:28:45;2.87;;;0.80;;
15876;SDS011;8037;51.666;7.834;2023-07-29T12:31:12;0.90;;;0.70;;
15876;SDS011;8037;51.666;7.834;2023-07-29T12:33:38;0.70;;;0.70;;
15876;SDS011;8037;51.666;7.834;2023-07-29T12:36:04;1.37;;;1.03;;
15876;SDS011;8037;51.666;7.834;2023-07-29T12:38:30;2.47;;;0.93;;
15876;SDS011;8037;51.666;7.834;2023-07-29T12:40:58;1.47;;;1.30;;
15876;SDS011;8037;51.666;7.834;2023-07-29T12:43:24;1.23;;;1.13;;
15876;SDS011;8037;51.666;7.834;2023-07-29T12:45:53;0.83;;;0.83;;
15876;SDS011;8037;51.666;7.834;2023-07-29T12:48:19;0.93;;;0.93;;
15876;SDS011;8037;51.666;7.834;2023-07-29T12:50:46;1.17;;;1.07;;
15876;SDS011;8037;51.666;7.834;2023-07-29T12:53:12;1.60;;;1.50;;
15876;SDS011;8037;51.666;7.834;2023-07-29T12:55:38;0.93;;;0.93;;
15876;SDS011;8037;51.666;7.834;2023-07-29T12:58:04;1.73;;;1.00;;
15876;SDS011;8037;51.666;7.834;2023-07-29T13:00:30;1.00;;;0.90;;
15876;SDS011;8037;51.666;7.834;2023-07-29T13:02:56;1.53;;;1.40;;
15876;SDS011;8037;51.666;7.834;2023-07-29T13:05:22;5.90;;;1.10;;
15876;SDS011;8037;51.666;7.834;2023-07-29T13:07:48;7.30;;;1.30;;
15876;SDS011;8037;51.666;7.834;2023-07-29T13:10:14;1.27;;;1.17;;
15876;SDS011;8037;51.666;7.834;2023-07-29T13:12:40;1.17;;;1.07;;
15876;SDS011;8037;51.666;7.834;2023-07-29T13:15:07;1.30;;;1.30;;
15876;SDS011;8037;51.666;7.834;2023-07-29T13:17:33;1.40;;;1.30;;
15876;SDS011;8037;51.666;7.834;2023-07-29T13:19:59;3.40;;;1.40;;
15876;SDS011;8037;51.666;7.834;2023-07-29T13:22:25;1.43;;;0.97;;
15876;SDS011;8037;51.666;7.834;2023-07-29T13:24:52;0.90;;;0.90;;
15876;SDS011;8037;51.666;7.834;2023-07-29T13:27:18;2.70;;;0.93;;
15876;SDS011;8037;51.666;7.834;2023-07-29T13:29:44;10.40;;;0.70;;
15876;SDS011;8037;51.666;7.834;2023-07-29T13:32:10;0.80;;;0.80;;
15876;SDS011;8037;51.666;7.834;2023-07-29T13:34:36;1.00;;;1.00;;
15876;SDS011;8037;51.666;7.834;2023-07-29T13:37:05;1.07;;;1.03;;
15876;SDS011;8037;51.666;7.834;2023-07-29T13:39:31;0.77;;;0.60;;
15876;SDS011;8037;51.666;7.834;2023-07-29T13:41:57;0.70;;;0.70;;
15876;SDS011;8037;51.666;7.834;2023-07-29T13:44:23;0.57;;;0.50;;
15876;SDS011;8037;51.666;7.834;2023-07-29T13:46:49;1.97;;;1.13;;
15876;SDS011;8037;51.666;7.834;2023-07-29T13:49:15;3.07;;;0.80;;
15876;SDS011;8037;51.666;7.834;2023-07-29T13:51:41;1.10;;;0.80;;
15876;SDS011;8037;51.666;7.834;2023-07-29T13:54:07;2.00;;;0.90;;
15876;SDS011;8037;51.666;7.834;2023-07-29T13:56:33;1.00;;;1.00;;
15876;SDS011;8037;51.666;7.834;2023-07-29T13:59:00;1.10;;;1.10;;
15876;SDS011;8037;51.666;7.834;2023-07-29T14:01:26;0.77;;;0.70;;
15876;SDS011;8037;51.666;7.834;2023-07-29T14:03:52;0.80;;;0.80;;
15876;SDS011;8037;51.666;7.834;2023-07-29T14:06:17;0.70;;;0.70;;
15876;SDS011;8037;51.666;7.834;2023-07-29T14:08:43;0.90;;;0.90;;
15876;SDS011;8037;51.666;7.834;2023-07-29T14:11:09;0.90;;;0.90;;
15876;SDS011;8037;51.666;7.834;2023-07-29T14:13:35;1.03;;;0.93;;
15876;SDS011;8037;51.666;7.834;2023-07-29T14:16:01;0.87;;;0.87;;
15876;SDS011;8037;51.666;7.834;2023-07-29T14:18:28;1.60;;;1.13;;
15876;SDS011;8037;51.666;7.834;2023-07-29T14:20:54;1.27;;;1.10;;
15876;SDS011;8037;51.666;7.834;2023-07-29T14:23:20;1.43;;;1.00;;
15876;SDS011;8037;51.666;7.834;2023-07-29T14:25:46;0.97;;;0.93;;
15876;SDS011;8037;51.666;7.834;2023-07-29T14:28:12;0.77;;;0.77;;
15876;SDS011;8037;51.666;7.834;2023-07-29T14:30:39;1.20;;;0.80;;
15876;SDS011;8037;51.666;7.834;2023-07-29T14:33:06;1.70;;;0.70;;
15876;SDS011;8037;51.666;7.834;2023-07-29T14:35:32;0.87;;;0.80;;
15876;SDS011;8037;51.666;7.834;2023-07-29T14:37:57;1.63;;;1.53;;
15876;SDS011;8037;51.666;7.834;2023-07-29T14:40:23;1.00;;;0.90;;
15876;SDS011;8037;51.666;7.834;2023-07-29T14:42:49;2.13;;;1.87;;
15876;SDS011;8037;51.666;7.834;2023-07-29T14:45:14;1.57;;;1.47;;
15876;SDS011;8037;51.666;7.834;2023-07-29T14:47:40;1.20;;;0.87;;
15876;SDS011;8037;51.666;7.834;2023-07-29T14:50:06;0.80;;;0.80;;
15876;SDS011;8037;51.666;7.834;2023-07-29T14:52:35;1.90;;;1.30;;
15876;SDS011;8037;51.666;7.834;2023-07-29T14:55:00;3.60;;;1.13;;
15876;SDS011;8037;51.666;7.834;2023-07-29T14:57:26;2.07;;;1.20;;
15876;SDS011;8037;51.666;7.834;2023-07-29T14:59:52;6.70;;;1.80;;
15876;SDS011;8037;51.666;7.834;2023-07-29T15:02:18;1.30;;;1.20;;
15876;SDS011;8037;51.666;7.834;2023-07-29T15:04:44;4.87;;;1.40;;
15876;SDS011;8037;51.666;7.834;2023-07-29T15:07:10;2.00;;;1.00;;
15876;SDS011;8037;51.666;7.834;2023-07-29T15:09:36;1.20;;;0.80;;
15876;SDS011;8037;51.666;7.834;2023-07-29T15:12:02;0.93;;;0.90;;
15876;SDS011;8037;51.666;7.834;2023-07-29T15:14:28;3.13;;;0.90;;